sensor_id;sensor_type;location;lat;lon;timestamp;pressure;altitude;pressure_sealevel;temperature;humidity
39699;BME280;25372;50.582;12.250;2023-04-29T00:33:11;99244.53;;;8.46;88.57
39699;BME280;25372;50.582;12.250;2023-04-29T00:43:33;99207.53;;;7.82;88.66
39699;BME280;25372;50.582;12.250;2023-04-29T01:38:59;99234.19;;;8.17;89.46
39699;BME280;25372;50.582;12.250;2023-04-29T02:12:37;99291.66;;;8.60;91.02
39699;BME280;25372;50.582;12.250;2023-04-29T03:51:09;99214.59;;;9.05;90.29
39699;BME280;25372;50.582;12.250;2023-04-29T05:02:26;99264.88;;;10.01;90.26
39699;BME280;25372;50.582;12.250;2023-04-29T06:28:55;99303.72;;;12.35;82.68
39699;BME280;25372;50.582;12.250;2023-04-29T06:39:16;99328.00;;;12.82;80.07
39699;BME280;25372;50.582;12.250;2023-04-29T06:50:09;99336.72;;;11.93;84.10
39699;BME280;25372;50.582;12.250;2023-04-29T07:00:30;99343.28;;;11.99;83.97
39699;BME280;25372;50.582;12.250;2023-04-29T07:10:56;99345.53;;;11.81;84.65
39699;BME280;25372;50.582;12.250;2023-04-29T07:21:21;99355.88;;;11.48;86.20
39699;BME280;25372;50.582;12.250;2023-04-29T07:31:43;99353.88;;;11.63;85.49
39699;BME280;25372;50.582;12.250;2023-04-29T07:42:05;99367.38;;;12.28;84.12
39699;BME280;25372;50.582;12.250;2023-04-29T07:52:27;99386.03;;;12.48;82.58
39699;BME280;25372;50.582;12.250;2023-04-29T09:14:25;99454.63;;;11.28;82.59
39699;BME280;25372;50.582;12.250;2023-04-29T09:24:46;99467.63;;;11.05;84.49
39699;BME280;25372;50.582;12.250;2023-04-29T09:35:22;99477.72;;;11.36;82.39
39699;BME280;25372;50.582;12.250;2023-04-29T09:45:45;99491.66;;;11.25;82.50
39699;BME280;25372;50.582;12.250;2023-04-29T09:56:08;99478.47;;;11.73;82.43
39699;BME280;25372;50.582;12.250;2023-04-29T10:06:29;99503.81;;;12.69;79.64
39699;BME280;25372;50.582;12.250;2023-04-29T10:16:58;99479.63;;;12.86;78.41
39699;BME280;25372;50.582;12.250;2023-04-29T10:38:13;99523.22;;;12.79;75.74
39699;BME280;25372;50.582;12.250;2023-04-29T10:48:35;99528.47;;;13.25;73.27
39699;BME280;25372;50.582;12.250;2023-04-29T10:58:58;99535.19;;;12.61;74.59
39699;BME280;25372;50.582;12.250;2023-04-29T11:09:19;99532.91;;;13.13;72.52
39699;BME280;25372;50.582;12.250;2023-04-29T11:30:33;99554.25;;;14.09;67.55
39699;BME280;25372;50.582;12.250;2023-04-29T11:40:55;99571.78;;;13.78;66.78
39699;BME280;25372;50.582;12.250;2023-04-29T11:51:18;99573.13;;;13.61;69.31
39699;BME280;25372;50.582;12.250;2023-04-29T12:01:45;99585.56;;;13.70;68.79
39699;BME280;25372;50.582;12.250;2023-04-29T12:12:09;99595.81;;;13.06;67.83
39699;BME280;25372;50.582;12.250;2023-04-29T12:22:30;99618.09;;;12.08;72.77
39699;BME280;25372;50.582;12.250;2023-04-29T12:32:53;99632.41;;;12.64;71.79
39699;BME280;25372;50.582;12.250;2023-04-29T12:43:14;99658.13;;;11.87;71.92
39699;BME280;25372;50.582;12.250;2023-04-29T12:53:36;99659.91;;;11.49;74.16
39699;BME280;25372;50.582;12.250;2023-04-29T13:03:57;99674.47;;;11.03;77.07
39699;BME280;25372;50.582;12.250;2023-04-29T13:14:19;99685.19;;;11.26;75.44
39699;BME280;25372;50.582;12.250;2023-04-29T13:24:40;99685.56;;;11.58;74.29
39699;BME280;25372;50.582;12.250;2023-04-29T13:35:02;99701.72;;;10.61;77.97
39699;BME280;25372;50.582;12.250;2023-04-29T13:45:23;99717.16;;;10.11;79.90
39699;BME280;25372;50.582;12.250;2023-04-29T13:55:44;99730.44;;;10.23;79.39
39699;BME280;25372;50.582;12.250;2023-04-29T14:06:05;99737.06;;;10.28;79.61
39699;BME280;25372;50.582;12.250;2023-04-29T14:16:28;99749.16;;;10.31;79.30
39699;BME280;25372;50.582;12.250;2023-04-29T14:26:48;99756.31;;;10.14;79.67
39699;BME280;25372;50.582;12.250;2023-04-29T14:37:12;99754.41;;;10.31;77.55
39699;BME280;25372;50.582;12.250;2023-04-29T14:47:32;99772.53;;;10.63;76.33
39699;BME280;25372;50.582;12.250;2023-04-29T14:57:54;99779.69;;;10.74;75.55
39699;BME280;25372;50.582;12.250;2023-04-29T15:08:15;99783.75;;;10.93;74.23
39699;BME280;25372;50.582;12.250;2023-04-29T15:18:37;99790.44;;;10.84;76.46
39699;BME280;25372;50.582;12.250;2023-04-29T15:28:58;99787.34;;;10.91;76.05
39699;BME280;25372;50.582;12.250;2023-04-29T15:39:20;99796.38;;;11.00;75.23
39699;BME280;25372;50.582;12.250;2023-04-29T15:49:42;99814.28;;;10.81;75.65
39699;BME280;25372;50.582;12.250;2023-04-29T16:00:05;99812.69;;;10.78;74.83
39699;BME280;25372;50.582;12.250;2023-04-29T16:10:26;99823.31;;;10.76;76.17
39699;BME280;25372;50.582;12.250;2023-04-29T16:20:48;99829.75;;;10.85;75.59
39699;BME280;25372;50.582;12.250;2023-04-29T16:31:09;99840.69;;;10.92;75.45
39699;BME280;25372;50.582;12.250;2023-04-29T16:41:33;99841.41;;;10.81;75.13
39699;BME280;25372;50.582;12.250;2023-04-29T16:51:54;99846.66;;;10.81;74.69
39699;BME280;25372;50.582;12.250;2023-04-29T17:02:16;99864.94;;;10.83;75.35
39699;BME280;25372;50.582;12.250;2023-04-29T17:12:37;99869.75;;;10.76;75.46
39699;BME280;25372;50.582;12.250;2023-04-29T17:22:59;99885.25;;;10.66;76.63
39699;BME280;25372;50.582;12.250;2023-04-29T17:33:20;99899.81;;;10.57;77.55
39699;BME280;25372;50.582;12.250;2023-04-29T17:43:42;99899.97;;;10.40;77.79
39699;BME280;25372;50.582;12.250;2023-04-29T17:54:03;99919.50;;;10.35;77.24
39699;BME280;25372;50.582;12.250;2023-04-29T18:04:25;99937.09;;;10.33;78.88
39699;BME280;25372;50.582;12.250;2023-04-29T18:14:46;99934.09;;;10.11;78.96
39699;BME280;25372;50.582;12.250;2023-04-29T18:25:09;99947.22;;;10.11;79.92
39699;BME280;25372;50.582;12.250;2023-04-29T18:35:31;99947.47;;;10.06;79.20
39699;BME280;25372;50.582;12.250;2023-04-29T18:45:53;99963.16;;;10.07;79.05
39699;BME280;25372;50.582;12.250;2023-04-29T18:56:15;99982.91;;;9.99;80.05
39699;BME280;25372;50.582;12.250;2023-04-29T19:06:37;99994.22;;;9.99;78.73
39699;BME280;25372;50.582;12.250;2023-04-29T19:16:58;100009.88;;;10.01;79.22
39699;BME280;25372;50.582;12.250;2023-04-29T19:27:20;100011.94;;;9.96;79.21
39699;BME280;25372;50.582;12.250;2023-04-29T19:37:40;100021.50;;;9.97;78.43
39699;BME280;25372;50.582;12.250;2023-04-29T19:48:03;100034.22;;;9.88;79.85
39699;BME280;25372;50.582;12.250;2023-04-29T19:58:24;100032.97;;;9.79;79.28
39699;BME280;25372;50.582;12.250;2023-04-29T20:08:45;100033.72;;;9.82;80.11
39699;BME280;25372;50.582;12.250;2023-04-29T20:19:06;100035.59;;;9.79;80.01
39699;BME280;25372;50.582;12.250;2023-04-29T20:29:28;100041.38;;;9.70;79.83
39699;BME280;25372;50.582;12.250;2023-04-29T20:39:49;100049.31;;;9.69;79.38
39699;BME280;25372;50.582;12.250;2023-04-29T20:50:11;100047.84;;;9.79;77.78
39699;BME280;25372;50.582;12.250;2023-04-29T21:00:32;100047.19;;;9.75;77.90
39699;BME280;25372;50.582;12.250;2023-04-29T21:10:55;100048.88;;;9.76;77.72
39699;BME280;25372;50.582;12.250;2023-04-29T21:21:15;100054.03;;;9.78;77.42
39699;BME280;25372;50.582;12.250;2023-04-29T21:31:37;100058.59;;;9.74;77.88
39699;BME280;25372;50.582;12.250;2023-04-29T21:41:58;100065.28;;;9.64;77.18
39699;BME280;25372;50.582;12.250;2023-04-29T21:52:23;100077.06;;;9.57;76.52
39699;BME280;25372;50.582;12.250;2023-04-29T22:02:44;100074.34;;;9.58;77.33
39699;BME280;25372;50.582;12.250;2023-04-29T22:13:06;100074.97;;;9.47;77.17
39699;BME280;25372;50.582;12.250;2023-04-29T22:23:27;100085.00;;;9.39;78.60
39699;BME280;25372;50.582;12.250;2023-04-29T22:33:49;100090.06;;;9.26;79.06
39699;BME280;25372;50.582;12.250;2023-04-29T22:44:10;100090.75;;;9.30;78.47
39699;BME280;25372;50.582;12.250;2023-04-29T22:54:31;100105.97;;;9.23;78.60
39699;BME280;25372;50.582;12.250;2023-04-29T23:04:53;100097.09;;;9.26;78.62
39699;BME280;25372;50.582;12.250;2023-04-29T23:15:15;100106.81;;;9.23;78.68
39699;BME280;25372;50.582;12.250;2023-04-29T23:25:36;100101.72;;;9.20;79.20
39699;BME280;25372;50.582;12.250;2023-04-29T23:35:58;100101.41;;;9.27;77.55
39699;BME280;25372;50.582;12.250;2023-04-29T23:46:18;100116.22;;;9.28;77.10
39699;BME280;25372;50.582;12.250;2023-04-29T23:56:40;100113.06;;;9.21;75.63
